Time;durP1;ratioP1;P1;durP2;ratioP2;P2;SDS_P1;SDS_P2;PMS_P1;PMS_P2;Temp;Humidity;BMP_temperature;BMP_pressure;BME280_temperature;BME280_humidity;BME280_pressure;Samples;Min_cycle;Max_cycle;Signal;HPM_P1;HPM_P2
2024/01/30 00:17:20;;;;;;;10.75;4.35;;;;;;;3.78;100.00;102229.78;6049599;28;20098;-75
2024/01/30 00:20:16;;;;;;;10.43;4.78;;;;;;;3.76;100.00;102219.34;6091327;28;20036;-76
2024/01/30 00:23:11;;;;;;;10.17;4.47;;;;;;;3.71;100.00;102223.94;6094828;28;20029;-75
2024/01/30 00:58:16;;;;;;;;;;;;;;;;;;;;;
2024/01/30 02:13:57;;;;;;;15.07;5.70;;;;;;;5.40;100.00;102199.41;6490052;23;20501;-77
2024/01/30 02:21:18;;;;;;;12.38;4.82;;;;;;;5.30;100.00;102166.56;5975120;28;20074;-75
2024/01/30 02:24:51;;;;;;;9.77;4.03;;;;;;;5.29;100.00;102162.25;6003540;28;20034;-75
2024/01/30 02:28:41;;;;;;;;;;;;;;;;;;;;;
2024/01/30 02:32:07;;;;;;;10.13;5.10;;;;;;;5.27;100.00;102140.47;6048054;28;20157;-74
2024/01/30 02:35:41;;;;;;;;;;;;;;;;;;;;;
2024/01/30 02:56:31;;;;;;;10.75;4.22;;;;;;;5.29;100.00;102138.59;6045938;28;20046;-74
2024/01/30 02:59:58;;;;;;;10.65;5.25;;;;;;;5.13;100.00;102117.50;6010328;28;20137;-75
2024/01/30 03:41:00;;;;;;;9.05;4.53;;;;;;;4.98;100.00;102107.72;5973321;28;20034;-77
2024/01/30 03:43:55;;;;;;;11.65;5.20;;;;;;;5.23;100.00;102133.63;5990979;28;20049;-76
2024/01/30 03:46:50;;;;;;;12.82;5.68;;;;;;;5.34;100.00;102136.56;6051893;28;20051;-78
2024/01/30 03:50:01;;;;;;;9.33;4.27;;;;;;;5.37;100.00;102120.66;6097940;28;20037;-76
2024/01/30 03:53:46;;;;;;;13.00;4.47;;;;;;;5.50;100.00;102131.38;6072394;28;20052;-77
2024/01/30 03:56:39;;;;;;;8.27;3.95;;;;;;;5.38;100.00;102096.06;6088527;28;20151;-76
2024/01/30 03:59:35;;;;;;;9.63;4.50;;;;;;;5.56;100.00;102116.16;6097929;28;20047;-76
2024/01/30 04:02:33;;;;;;;9.30;4.30;;;;;;;5.66;100.00;102117.34;6098428;28;20268;-77
2024/01/30 04:05:29;;;;;;;16.60;4.68;;;;;;;5.73;100.00;102125.78;6094238;28;20037;-76
2024/01/30 04:08:42;;;;;;;9.07;4.35;;;;;;;5.61;100.00;102105.38;6082138;28;20071;-76
2024/01/30 04:11:39;;;;;;;13.98;5.63;;;;;;;5.78;100.00;102122.00;6098118;28;20032;-76
2024/01/30 04:18:26;;;;;;;7.93;4.07;;;;;;;5.64;100.00;102113.97;6095904;28;20033;-76
2024/01/30 04:25:39;;;;;;;9.55;4.60;;;;;;;5.61;100.00;102108.84;6036638;28;20039;-77
2024/01/30 04:33:10;;;;;;;8.18;4.00;;;;;;;5.43;100.00;102089.59;5983983;28;20059;-76
2024/01/30 04:39:57;;;;;;;10.23;4.38;;;;;;;5.30;100.00;102088.53;6009255;28;20038;-75
2024/01/30 04:43:41;;;;;;;13.97;4.73;;;;;;;5.52;100.00;102126.91;6018693;28;20390;-76
2024/01/30 04:46:36;;;;;;;10.45;5.20;;;;;;;5.39;100.00;102103.00;6003744;28;20110;-74
2024/01/30 04:49:35;;;;;;;14.23;5.45;;;;;;;5.44;100.00;102098.34;6077822;28;20032;-75
2024/01/30 04:53:11;;;;;;;9.85;5.13;;;;;;;5.54;100.00;102114.53;6072878;28;20033;-75
2024/01/30 04:56:08;;;;;;;8.02;4.00;;;;;;;5.56;100.00;102131.94;6078335;28;20076;-75
2024/01/30 04:59:04;;;;;;;17.60;5.20;;;;;;;5.57;100.00;102123.09;6088578;28;20108;-75
2024/01/30 05:01:59;;;;;;;8.48;4.28;;;;;;;5.56;100.00;102123.19;6064529;28;20040;-76
2024/01/30 05:04:54;;;;;;;11.47;5.10;;;;;;;5.46;100.00;102116.69;6098498;28;20032;-75
2024/01/30 05:08:13;;;;;;;9.50;4.50;;;;;;;5.42;100.00;102123.88;6096818;28;20303;-76
2024/01/30 05:11:23;;;;;;;10.43;5.10;;;;;;;5.46;100.00;102101.78;6083618;28;20075;-74
2024/01/30 05:14:32;;;;;;;14.15;5.45;;;;;;;5.60;100.00;102122.09;6075721;28;20137;-75
2024/01/30 05:17:34;;;;;;;10.50;4.60;;;;;;;5.37;100.00;102083.81;6076511;28;20033;-74
2024/01/30 05:24:24;;;;;;;8.68;3.95;;;;;;;5.46;100.00;102109.66;6096585;28;20029;-75
2024/01/30 05:27:30;;;;;;;10.77;4.80;;;;;;;5.51;100.00;102107.63;6067855;28;20033;-75
2024/01/30 05:30:26;;;;;;;11.32;4.80;;;;;;;5.65;100.00;102115.69;6085267;28;20037;-75
2024/01/30 05:34:25;;;;;;;12.32;4.68;;;;;;;5.66;100.00;102124.38;6067725;28;20049;-75
2024/01/30 05:37:39;;;;;;;11.10;4.80;;;;;;;5.52;100.00;102105.88;6035092;28;20054;-75
2024/01/30 05:40:34;;;;;;;12.73;5.15;;;;;;;5.51;100.00;102109.41;6018798;28;20441;-75
2024/01/30 05:48:02;;;;;;;10.43;4.47;;;;;;;5.60;100.00;102122.09;6050432;28;20269;-75
2024/01/30 05:51:25;;;;;;;11.98;4.68;;;;;;;5.55;100.00;102114.44;6027730;28;20490;-75
2024/01/30 06:06:15;;;;;;;15.18;5.00;;;;;;;5.34;100.00;102099.75;6020595;28;20534;-75
2024/01/30 06:09:23;;;;;;;9.85;4.60;;;;;;;5.31;100.00;102110.44;6020525;28;20042;-75
2024/01/30 06:12:18;;;;;;;11.68;4.32;;;;;;;5.31;100.00;102097.28;6014950;28;20042;-75
2024/01/30 06:19:28;;;;;;;9.60;4.10;;;;;;;5.29;100.00;102114.94;6100133;28;20268;-75
2024/01/30 06:38:46;;;;;;;9.75;4.68;;;;;;;5.33;100.00;102104.16;6091412;28;20029;-76
2024/01/30 06:41:42;;;;;;;10.00;3.88;;;;;;;5.30;100.00;102108.72;6096018;28;20533;-76
2024/01/30 06:44:37;;;;;;;14.20;5.30;;;;;;;5.26;100.00;102096.66;6086833;28;20025;-76
2024/01/30 06:48:11;;;;;;;9.40;4.18;;;;;;;5.29;100.00;102104.41;6099689;28;20103;-75
2024/01/30 06:51:44;;;;;;;10.70;4.20;;;;;;;5.26;100.00;102102.78;6059402;28;20147;-75
2024/01/30 06:58:32;;;;;;;10.73;5.25;;;;;;;5.13;100.00;102080.69;6098042;28;20029;-76
2024/01/30 07:01:31;;;;;;;12.95;4.97;;;;;;;5.09;100.00;102073.00;6066874;28;20033;-76
2024/01/30 07:04:26;;;;;;;11.50;4.85;;;;;;;5.13;100.00;102074.56;6098553;28;20028;-76
2024/01/30 07:07:22;;;;;;;14.40;4.77;;;;;;;5.12;100.00;102073.72;6099674;28;20380;-77
2024/01/30 07:10:17;;;;;;;13.02;5.30;;;;;;;5.17;100.00;102071.69;6062974;28;20021;-75
2024/01/30 07:13:12;;;;;;;11.63;5.00;;;;;;;5.09;100.00;102073.84;6097968;28;20028;-77
2024/01/30 07:16:08;;;;;;;10.48;4.50;;;;;;;5.15;100.00;102091.97;6097582;28;20075;-76
2024/01/30 07:19:03;;;;;;;11.05;5.20;;;;;;;5.13;100.00;102095.59;6098055;28;20032;-76
2024/01/30 07:21:59;;;;;;;12.03;4.87;;;;;;;5.07;100.00;102088.88;6098857;28;20043;-76
2024/01/30 07:24:54;;;;;;;11.90;4.82;;;;;;;5.10;100.00;102083.47;6107505;28;20036;-77
2024/01/30 07:27:49;;;;;;;12.10;5.53;;;;;;;5.12;100.00;102072.84;6103881;28;20453;-75
2024/01/30 07:30:45;;;;;;;10.60;5.23;;;;;;;5.25;100.00;102084.44;6102380;28;20036;-78
2024/01/30 07:33:40;;;;;;;9.25;4.80;;;;;;;5.20;100.00;102083.81;6099456;28;20032;-76
2024/01/30 07:36:36;;;;;;;11.37;5.10;;;;;;;5.29;100.00;102091.25;6101439;28;20028;-75
2024/01/30 07:39:31;;;;;;;10.73;5.50;;;;;;;5.37;100.00;102089.09;6098623;28;20283;-76
2024/01/30 07:42:26;;;;;;;11.87;5.33;;;;;;;5.37;100.00;102091.72;6102254;28;20111;-76
2024/01/30 07:45:24;;;;;;;8.07;4.70;;;;;;;5.36;100.00;102098.75;6103137;28;20055;-76
2024/01/30 07:48:19;;;;;;;10.23;4.90;;;;;;;5.39;100.00;102082.81;6098062;28;20431;-75
2024/01/30 07:51:14;;;;;;;11.10;5.13;;;;;;;5.50;100.00;102100.66;6097604;28;20029;-76
2024/01/30 07:54:10;;;;;;;14.53;4.97;;;;;;;5.55;100.00;102097.78;6106191;28;20635;-75
2024/01/30 07:57:05;;;;;;;12.10;5.00;;;;;;;5.53;100.00;102092.63;6096753;28;20443;-76
2024/01/30 08:00:01;;;;;;;12.30;4.50;;;;;;;5.58;100.00;102092.38;6094700;28;20052;-76
2024/01/30 08:02:57;;;;;;;11.38;5.00;;;;;;;5.60;100.00;102087.91;6085843;28;20135;-75
2024/01/30 08:05:52;;;;;;;10.48;5.10;;;;;;;5.70;100.00;102089.09;6098097;28;20037;-76
2024/01/30 08:08:47;;;;;;;8.30;4.47;;;;;;;5.76;100.00;102089.63;6096665;28;20032;-75
2024/01/30 08:11:43;;;;;;;11.00;5.13;;;;;;;5.87;100.00;102100.47;6097460;28;20036;-75
2024/01/30 08:14:38;;;;;;;9.20;5.23;;;;;;;5.84;100.00;102086.59;6104145;28;20107;-75
2024/01/30 08:17:34;;;;;;;9.25;4.53;;;;;;;5.91;100.00;102096.75;6100635;28;20540;-77
2024/01/30 08:20:29;;;;;;;11.93;4.75;;;;;;;5.94;100.00;102091.31;6097559;28;20036;-76
2024/01/30 08:23:24;;;;;;;9.80;4.83;;;;;;;6.07;100.00;102102.03;6100547;28;20052;-75
2024/01/30 08:26:20;;;;;;;8.65;4.15;;;;;;;6.09;100.00;102100.16;6086655;28;20525;-76
2024/01/30 08:29:15;;;;;;;10.43;4.45;;;;;;;6.15;100.00;102096.34;6095395;28;20483;-76
2024/01/30 08:32:11;;;;;;;9.73;4.50;;;;;;;6.22;100.00;102092.44;6095424;28;20047;-77
2024/01/30 08:35:06;;;;;;;11.10;5.00;;;;;;;6.26;100.00;102096.59;6101001;28;20029;-75
2024/01/30 08:38:03;;;;;;;11.30;4.97;;;;;;;6.33;100.00;102095.34;6102264;28;20032;-77
2024/01/30 08:40:58;;;;;;;8.38;4.38;;;;;;;6.40;100.00;102094.06;6083701;28;20074;-77
2024/01/30 08:43:54;;;;;;;10.77;5.15;;;;;;;6.39;100.00;102073.91;6104146;28;20036;-76
2024/01/30 08:46:50;;;;;;;12.02;5.25;;;;;;;6.57;100.00;102076.38;6085060;28;20040;-77
2024/01/30 08:49:45;;;;;;;11.88;5.18;;;;;;;6.61;100.00;102061.22;6095672;28;20033;-75
2024/01/30 08:52:41;;;;;;;10.60;4.77;;;;;;;6.63;100.00;102062.00;6083605;28;20037;-76
2024/01/30 08:55:36;;;;;;;11.10;5.57;;;;;;;6.78;100.00;102071.66;6100287;28;20268;-77
2024/01/30 08:58:31;;;;;;;13.85;5.25;;;;;;;6.76;100.00;102064.78;6081676;28;20036;-77
2024/01/30 09:01:27;;;;;;;11.20;5.30;;;;;;;6.81;100.00;102060.09;6098006;28;20033;-77
2024/01/30 09:04:23;;;;;;;12.27;5.32;;;;;;;6.83;100.00;102064.34;6100086;28;20086;-76
2024/01/30 09:07:18;;;;;;;9.68;4.75;;;;;;;6.78;100.00;102057.63;6103601;28;20033;-75
2024/01/30 09:10:14;;;;;;;8.87;4.63;;;;;;;6.89;100.00;102060.50;6096330;28;20140;-76
2024/01/30 09:13:17;;;;;;;9.63;4.25;;;;;;;6.90;100.00;102057.75;6070104;28;20033;-76
2024/01/30 09:16:13;;;;;;;10.48;4.78;;;;;;;6.89;100.00;102042.03;6063264;28;20029;-74
2024/01/30 09:19:14;;;;;;;10.15;5.25;;;;;;;6.95;100.00;102042.53;6064656;28;20044;-77
2024/01/30 09:22:09;;;;;;;10.70;4.72;;;;;;;7.02;100.00;102057.03;6083412;28;20041;-74
2024/01/30 09:25:05;;;;;;;10.00;4.40;;;;;;;7.09;100.00;102071.56;6099788;28;20538;-76
2024/01/30 09:28:00;;;;;;;8.73;4.45;;;;;;;7.19;100.00;102056.91;6095735;28;20205;-77
2024/01/30 09:30:55;;;;;;;12.90;5.50;;;;;;;7.25;100.00;102070.66;6068424;28;20044;-76
2024/01/30 09:33:53;;;;;;;12.70;5.23;;;;;;;7.21;100.00;102070.00;6095597;28;20611;-76
2024/01/30 09:36:49;;;;;;;8.38;4.60;;;;;;;7.23;100.00;102075.19;6084039;28;20021;-77
2024/01/30 09:39:44;;;;;;;10.15;4.50;;;;;;;7.45;100.00;102076.44;6082748;28;20047;-75
2024/01/30 09:42:40;;;;;;;8.77;5.37;;;;;;;7.41;100.00;102063.53;6097006;28;20040;-76
2024/01/30 09:45:40;;;;;;;10.85;5.13;;;;;;;7.53;100.00;102081.25;6078381;28;20040;-77
2024/01/30 09:48:35;;;;;;;9.57;5.32;;;;;;;7.62;100.00;102075.41;6066101;28;20037;-76
2024/01/30 09:51:31;;;;;;;8.57;4.38;;;;;;;7.68;100.00;102081.19;6093342;28;20065;-75
2024/01/30 09:54:31;;;;;;;12.10;5.07;;;;;;;7.71;100.00;102077.50;6063932;28;20029;-78
2024/01/30 09:57:26;;;;;;;9.40;4.70;;;;;;;7.68;100.00;102041.59;6079844;28;20053;-76
2024/01/30 10:00:26;;;;;;;10.57;5.00;;;;;;;7.73;100.00;102065.91;6099198;28;20036;-75
2024/01/30 10:03:21;;;;;;;13.70;4.95;;;;;;;7.85;100.00;102059.03;6096054;28;20029;-74
2024/01/30 10:06:17;;;;;;;12.30;4.67;;;;;;;7.97;100.00;102060.03;6082262;28;20037;-78
2024/01/30 10:09:13;;;;;;;12.00;4.82;;;;;;;8.12;100.00;102051.16;6098098;28;20024;-77
2024/01/30 10:12:12;;;;;;;14.60;5.30;;;;;;;8.18;100.00;102056.06;6098459;28;20033;-79
2024/01/30 10:15:08;;;;;;;11.55;4.82;;;;;;;8.37;100.00;102060.06;6089324;28;20048;-76
2024/01/30 10:18:06;;;;;;;9.55;4.30;;;;;;;8.52;100.00;102054.75;6095583;28;20443;-77
2024/01/30 10:21:02;;;;;;;9.07;4.47;;;;;;;8.58;100.00;102055.22;6097308;28;20065;-74
2024/01/30 10:23:59;;;;;;;8.57;4.15;;;;;;;8.67;100.00;102059.88;6102726;28;20031;-74
2024/01/30 10:26:54;;;;;;;10.80;4.70;;;;;;;8.85;100.00;102044.59;6069093;28;20449;-76
2024/01/30 10:29:51;;;;;;;8.77;4.32;;;;;;;8.97;100.00;102059.63;6063273;28;20044;-74
2024/01/30 10:32:46;;;;;;;9.30;4.47;;;;;;;8.84;100.00;102048.19;6085425;28;20025;-79
2024/01/30 10:35:41;;;;;;;9.83;4.50;;;;;;;8.81;100.00;102056.31;6104608;28;20035;-77
2024/01/30 10:38:38;;;;;;;11.55;4.40;;;;;;;8.85;100.00;102055.19;6072969;28;20284;-77
2024/01/30 10:41:43;;;;;;;13.68;5.40;;;;;;;8.91;100.00;102052.13;6104703;28;20036;-79
2024/01/30 10:44:45;;;;;;;10.85;4.63;;;;;;;8.80;100.00;102033.50;6111523;28;20028;-76
2024/01/30 10:47:56;;;;;;;9.98;4.63;;;;;;;8.76;100.00;102034.63;6087597;28;20116;-76
2024/01/30 10:50:54;;;;;;;10.18;4.95;;;;;;;8.79;100.00;102037.06;6093385;28;20492;-76
2024/01/30 10:53:49;;;;;;;9.75;4.78;;;;;;;8.84;100.00;102035.81;6088132;28;20104;-75
2024/01/30 10:56:44;;;;;;;9.02;4.75;;;;;;;8.95;100.00;102033.31;6096715;28;20426;-76
2024/01/30 10:59:40;;;;;;;10.02;4.40;;;;;;;9.08;100.00;102028.00;6100796;28;20403;-76
2024/01/30 11:02:40;;;;;;;10.55;4.72;;;;;;;9.17;100.00;102032.69;6105984;28;20737;-76
2024/01/30 11:05:36;;;;;;;9.80;4.60;;;;;;;9.11;100.00;102035.75;6098898;28;20060;-76
2024/01/30 11:08:32;;;;;;;7.93;4.10;;;;;;;9.08;100.00;102020.06;6100621;28;20068;-75
2024/01/30 11:11:28;;;;;;;11.57;4.60;;;;;;;9.38;100.00;102030.38;6102330;28;20068;-75
2024/01/30 11:14:27;;;;;;;9.77;4.50;;;;;;;9.27;100.00;102023.16;6099940;28;20369;-77
2024/01/30 11:17:27;;;;;;;11.32;4.88;;;;;;;9.26;100.00;102021.50;6101956;28;20419;-75
2024/01/30 11:20:28;;;;;;;9.85;4.75;;;;;;;9.42;100.00;102014.19;6099123;28;20055;-79
2024/01/30 11:23:23;;;;;;;7.13;3.90;;;;;;;9.46;100.00;102020.09;6081270;28;20117;-79
2024/01/30 11:26:20;;;;;;;10.18;4.80;;;;;;;9.49;100.00;102007.50;6105023;28;20391;-77
2024/01/30 11:29:19;;;;;;;14.43;4.50;;;;;;;9.57;100.00;102021.03;6090572;28;20033;-78
2024/01/30 11:32:23;;;;;;;11.13;4.45;;;;;;;9.55;100.00;102007.06;6106423;28;20439;-79
2024/01/30 11:35:19;;;;;;;8.65;4.43;;;;;;;9.61;100.00;102010.25;6099077;28;20056;-77
2024/01/30 11:38:15;;;;;;;8.30;3.88;;;;;;;9.64;100.00;102007.38;6101346;28;20036;-77
2024/01/30 11:41:10;;;;;;;8.82;4.03;;;;;;;9.54;100.00;102005.38;6100007;28;20029;-79
2024/01/30 11:44:06;;;;;;;10.87;4.20;;;;;;;9.68;100.00;102011.47;6083530;28;20041;-78
2024/01/30 11:47:03;;;;;;;10.63;4.78;;;;;;;9.46;100.00;101996.25;6071660;28;20294;-77
2024/01/30 11:49:58;;;;;;;10.40;4.22;;;;;;;9.44;100.00;102008.75;6097725;28;20404;-76
2024/01/30 11:52:54;;;;;;;9.37;5.03;;;;;;;9.59;100.00;101999.75;6101970;28;20043;-76
2024/01/30 11:55:50;;;;;;;10.73;4.60;;;;;;;9.55;100.00;102001.78;6104670;28;20496;-77
2024/01/30 11:58:46;;;;;;;9.48;4.22;;;;;;;9.56;100.00;102003.47;6105044;28;20029;-78
2024/01/30 12:01:41;;;;;;;9.85;4.57;;;;;;;9.61;100.00;102000.50;6085957;28;20087;-77
2024/01/30 12:04:36;;;;;;;8.80;4.18;;;;;;;9.57;100.00;101997.22;6087297;28;20039;-76
2024/01/30 12:07:32;;;;;;;16.03;4.53;;;;;;;9.65;100.00;101980.75;6100838;28;20033;-77
2024/01/30 12:10:28;;;;;;;10.25;4.32;;;;;;;9.65;100.00;101990.53;6104017;28;20055;-76
2024/01/30 12:13:24;;;;;;;10.38;4.95;;;;;;;9.57;100.00;101983.97;6097014;28;20480;-75
2024/01/30 12:16:19;;;;;;;7.85;4.15;;;;;;;9.49;100.00;101985.47;6091887;28;20047;-76
2024/01/30 12:19:22;;;;;;;10.60;5.10;;;;;;;9.63;100.00;101987.13;6093383;28;20029;-77
2024/01/30 12:22:18;;;;;;;9.80;4.40;;;;;;;9.59;100.00;101973.28;6099734;28;20423;-76
2024/01/30 12:25:17;;;;;;;7.78;3.88;;;;;;;9.69;100.00;101982.25;6105445;28;20071;-76
2024/01/30 12:28:13;;;;;;;8.32;4.13;;;;;;;9.76;100.00;101982.66;6087214;28;20040;-75
2024/01/30 12:31:08;;;;;;;7.27;4.00;;;;;;;9.70;100.00;101951.31;6104843;28;20028;-77
2024/01/30 12:34:04;;;;;;;8.43;4.07;;;;;;;9.52;100.00;101949.03;6101894;28;20271;-78
2024/01/30 12:36:59;;;;;;;9.60;4.10;;;;;;;9.83;100.00;101968.03;6106220;28;20033;-77
2024/01/30 12:39:55;;;;;;;9.38;4.30;;;;;;;9.70;100.00;101967.22;6096036;28;20029;-77
2024/01/30 12:42:51;;;;;;;13.73;4.63;;;;;;;9.76;100.00;101967.59;6103509;28;20062;-76
2024/01/30 12:45:47;;;;;;;10.27;4.55;;;;;;;9.78;100.00;101959.56;6098463;28;20037;-77
2024/01/30 12:48:43;;;;;;;13.30;4.53;;;;;;;9.88;100.00;101987.09;6096408;28;20064;-79
2024/01/30 12:51:39;;;;;;;10.53;4.20;;;;;;;9.81;100.00;101962.00;6095997;28;20685;-75
2024/01/30 12:54:35;;;;;;;10.10;4.20;;;;;;;9.64;100.00;101954.41;6097035;28;20496;-76
2024/01/30 12:57:30;;;;;;;11.00;4.35;;;;;;;9.85;100.00;101987.31;6085266;28;20039;-76
2024/01/30 13:00:26;;;;;;;8.77;4.10;;;;;;;9.87;100.00;101980.09;6095924;28;20061;-76
2024/01/30 13:03:22;;;;;;;6.65;4.35;;;;;;;10.04;100.00;101985.03;6091075;28;20018;-77
2024/01/30 13:06:17;;;;;;;8.48;4.45;;;;;;;10.02;100.00;101990.44;6096248;28;20108;-77
2024/01/30 13:09:12;;;;;;;7.60;4.07;;;;;;;9.89;100.00;102000.22;6096492;28;20373;-77
2024/01/30 13:12:09;;;;;;;10.80;4.60;;;;;;;10.00;100.00;101996.81;6096468;28;20515;-78
2024/01/30 13:15:05;;;;;;;10.32;4.47;;;;;;;10.01;100.00;101990.53;6096229;28;20520;-75
2024/01/30 13:18:00;;;;;;;11.10;4.30;;;;;;;10.01;100.00;101987.88;6096089;28;20033;-78
2024/01/30 13:20:56;;;;;;;8.63;4.53;;;;;;;10.06;100.00;101993.69;6095840;28;20416;-77
2024/01/30 13:23:53;;;;;;;8.13;4.53;;;;;;;10.30;100.00;101991.13;6082760;28;20033;-76
2024/01/30 13:26:49;;;;;;;6.72;3.55;;;;;;;10.26;100.00;102001.09;6099771;28;20112;-78
2024/01/30 13:29:44;;;;;;;11.70;4.20;;;;;;;10.39;100.00;102015.13;6099618;28;20418;-77
2024/01/30 13:32:41;;;;;;;9.43;4.67;;;;;;;10.34;100.00;102004.03;6096508;28;20279;-76
2024/01/30 13:35:36;;;;;;;8.27;4.13;;;;;;;10.22;100.00;101991.66;6100784;28;20268;-76
2024/01/30 13:38:31;;;;;;;11.77;4.40;;;;;;;10.39;100.00;102011.63;6086168;28;20090;-76
2024/01/30 13:41:27;;;;;;;12.77;4.67;;;;;;;10.38;100.00;101997.50;6098934;28;20033;-77
2024/01/30 13:44:22;;;;;;;10.10;4.53;;;;;;;10.50;100.00;102012.53;6091572;28;20477;-78
2024/01/30 13:47:18;;;;;;;9.53;4.50;;;;;;;10.48;100.00;102014.47;6097043;28;20279;-77
2024/01/30 13:50:16;;;;;;;12.13;4.85;;;;;;;10.38;100.00;102007.31;6096577;28;20325;-78
2024/01/30 13:53:11;;;;;;;9.35;4.10;;;;;;;10.43;100.00;101998.06;6084259;28;20103;-78
2024/01/30 13:56:07;;;;;;;11.30;5.03;;;;;;;10.50;100.00;102006.38;6099773;28;20090;-76
2024/01/30 13:59:05;;;;;;;9.82;5.10;;;;;;;10.31;100.00;102006.03;6098349;28;20029;-76
2024/01/30 14:02:00;;;;;;;11.88;5.05;;;;;;;10.22;100.00;101999.59;6088904;28;20037;-77
2024/01/30 14:04:56;;;;;;;11.03;3.60;;;;;;;10.18;100.00;102000.81;6095606;28;20119;-78
2024/01/30 14:07:54;;;;;;;9.30;4.47;;;;;;;10.21;100.00;102005.88;6081680;28;20799;-77
2024/01/30 14:10:56;;;;;;;9.40;4.03;;;;;;;10.13;100.00;102021.50;6085730;28;20059;-77
2024/01/30 14:13:52;;;;;;;7.72;4.05;;;;;;;10.11;100.00;102020.72;6092381;28;20408;-76
2024/01/30 14:16:47;;;;;;;9.43;4.25;;;;;;;10.10;100.00;102013.72;6087971;28;20036;-75
2024/01/30 14:19:42;;;;;;;9.10;4.77;;;;;;;9.95;100.00;102002.41;6099596;28;20029;-75
2024/01/30 14:22:38;;;;;;;11.87;4.67;;;;;;;9.85;100.00;102006.69;6099503;28;20329;-77
2024/01/30 14:25:33;;;;;;;7.20;3.77;;;;;;;9.72;100.00;102002.38;6105008;28;20037;-77
2024/01/30 14:28:29;;;;;;;9.90;4.60;;;;;;;9.84;100.00;102030.63;6102371;28;20092;-75
2024/01/30 14:31:30;;;;;;;9.00;4.30;;;;;;;9.71;100.00;101998.88;6104964;28;20033;-78
2024/01/30 14:34:27;;;;;;;12.52;4.57;;;;;;;9.77;100.00;102026.75;6095000;28;20041;-76
2024/01/30 14:37:23;;;;;;;10.57;4.80;;;;;;;9.57;100.00;102015.75;6098521;28;20111;-77
2024/01/30 14:40:19;;;;;;;10.55;5.05;;;;;;;9.62;100.00;102004.00;6097273;28;20103;-76
2024/01/30 14:43:17;;;;;;;14.30;4.90;;;;;;;9.52;100.00;102001.97;6097158;28;20033;-78
2024/01/30 14:46:12;;;;;;;9.93;4.60;;;;;;;9.51;100.00;102005.56;6099260;28;20109;-77
2024/01/30 14:49:09;;;;;;;10.60;4.60;;;;;;;9.50;100.00;101990.66;6099578;28;20419;-76
2024/01/30 14:52:05;;;;;;;9.45;4.95;;;;;;;9.41;100.00;101998.38;6099001;28;20033;-77
2024/01/30 14:55:00;;;;;;;9.40;4.70;;;;;;;9.39;100.00;101990.56;6099665;28;20091;-75
2024/01/30 14:57:55;;;;;;;10.50;4.63;;;;;;;9.36;100.00;102006.66;6099090;28;20028;-76
2024/01/30 15:00:51;;;;;;;10.23;4.80;;;;;;;9.32;100.00;102010.44;6099727;28;20824;-76
2024/01/30 15:03:46;;;;;;;9.50;4.97;;;;;;;9.18;100.00;102002.66;6097033;28;20419;-76
2024/01/30 15:06:45;;;;;;;13.35;5.38;;;;;;;9.24;100.00;102018.06;6101820;28;20442;-77
2024/01/30 15:09:40;;;;;;;9.73;4.88;;;;;;;9.16;100.00;102015.09;6101628;28;20029;-76
2024/01/30 15:12:36;;;;;;;11.13;5.80;;;;;;;9.17;100.00;102006.22;6104248;28;20029;-75
2024/01/30 15:15:31;;;;;;;15.10;5.85;;;;;;;9.15;100.00;102013.44;6101514;28;20487;-76
2024/01/30 15:18:27;;;;;;;10.67;4.77;;;;;;;9.10;100.00;102015.56;6103354;28;20029;-77
2024/01/30 15:21:22;;;;;;;9.73;4.53;;;;;;;9.07;100.00;102023.69;6105404;28;20033;-77
2024/01/30 15:24:20;;;;;;;8.90;4.88;;;;;;;9.11;100.00;102013.72;6100819;28;20171;-76
2024/01/30 15:27:15;;;;;;;10.57;3.90;;;;;;;9.05;100.00;102012.34;6100953;28;20032;-74
2024/01/30 15:30:12;;;;;;;10.25;4.63;;;;;;;9.01;100.00;102007.38;6100798;28;20087;-76
2024/01/30 15:33:07;;;;;;;9.50;4.80;;;;;;;9.01;100.00;102016.16;6106328;28;20029;-75
2024/01/30 15:36:03;;;;;;;7.63;5.03;;;;;;;9.00;100.00;102019.75;6109825;28;20029;-75
2024/01/30 15:38:58;;;;;;;9.93;5.03;;;;;;;9.01;100.00;102016.16;6101802;28;20104;-75
2024/01/30 15:41:54;;;;;;;8.70;4.53;;;;;;;8.98;100.00;102024.31;6101462;28;20040;-76
2024/01/30 15:44:49;;;;;;;8.43;4.85;;;;;;;9.02;100.00;102031.09;6099813;28;20043;-76
2024/01/30 15:47:45;;;;;;;10.13;5.10;;;;;;;8.95;100.00;102016.56;6103816;28;20120;-75
2024/01/30 15:50:40;;;;;;;12.10;4.60;;;;;;;8.93;100.00;102039.66;6104835;28;20029;-76
2024/01/30 15:53:35;;;;;;;12.80;5.13;;;;;;;8.98;100.00;102038.38;6102401;28;20483;-76
2024/01/30 15:56:31;;;;;;;9.27;4.40;;;;;;;8.98;100.00;102026.97;6101439;28;20275;-77
2024/01/30 15:59:27;;;;;;;8.87;4.10;;;;;;;9.07;100.00;102041.38;6102318;28;20312;-77
2024/01/30 16:02:22;;;;;;;11.02;4.55;;;;;;;9.02;100.00;102039.03;6098240;28;20071;-75
2024/01/30 16:05:18;;;;;;;9.73;4.63;;;;;;;9.06;100.00;102031.72;6096812;28;20499;-77
2024/01/30 16:08:13;;;;;;;7.13;3.88;;;;;;;9.08;100.00;102038.59;6068451;28;20056;-78
2024/01/30 16:11:09;;;;;;;10.43;4.57;;;;;;;9.08;100.00;102040.44;6103472;28;20084;-78
2024/01/30 16:14:05;;;;;;;10.80;4.60;;;;;;;9.08;100.00;102049.19;6104580;28;20037;-77
2024/01/30 16:17:00;;;;;;;9.63;4.57;;;;;;;9.05;100.00;102038.81;6098703;28;20476;-77
2024/01/30 16:19:55;;;;;;;9.70;4.43;;;;;;;9.10;100.00;102047.31;6100439;28;20392;-76
2024/01/30 16:22:52;;;;;;;9.97;4.50;;;;;;;9.07;100.00;102051.94;6099212;28;20480;-79
2024/01/30 16:25:48;;;;;;;11.77;4.80;;;;;;;9.05;100.00;102057.31;6096996;28;20025;-77
2024/01/30 16:28:46;;;;;;;9.27;4.47;;;;;;;9.15;100.00;102070.81;6100667;28;20063;-77
2024/01/30 16:31:41;;;;;;;11.88;6.00;;;;;;;9.03;100.00;102061.88;6102667;28;20041;-79
2024/01/30 16:34:36;;;;;;;11.23;4.77;;;;;;;9.02;100.00;102068.16;6098077;28;20404;-77
2024/01/30 16:37:32;;;;;;;16.30;5.57;;;;;;;9.06;100.00;102071.41;6097156;28;20112;-78
2024/01/30 16:40:27;;;;;;;14.77;5.37;;;;;;;9.04;100.00;102053.00;6098458;28;20082;-78
2024/01/30 16:43:22;;;;;;;12.43;4.83;;;;;;;9.20;100.00;102072.19;6098511;28;20824;-77
2024/01/30 16:46:18;;;;;;;8.53;4.03;;;;;;;9.15;100.00;102076.09;6081389;28;20036;-77
2024/01/30 16:49:13;;;;;;;11.77;4.80;;;;;;;9.09;100.00;102064.13;6096688;28;20037;-76
2024/01/30 16:52:09;;;;;;;13.07;5.13;;;;;;;9.08;100.00;102059.78;6096707;28;20028;-79
2024/01/30 16:55:07;;;;;;;8.70;4.03;;;;;;;9.08;100.00;102057.13;6096963;28;20533;-77
2024/01/30 16:58:03;;;;;;;11.18;5.10;;;;;;;9.09;100.00;102060.63;6095796;28;20082;-77
2024/01/30 17:00:58;;;;;;;13.65;4.95;;;;;;;9.10;100.00;102064.97;6095866;28;20399;-78
2024/01/30 17:03:54;;;;;;;11.23;5.68;;;;;;;9.13;100.00;102062.94;6079488;28;20396;-76
2024/01/30 17:06:50;;;;;;;9.60;4.57;;;;;;;9.14;100.00;102063.81;6095938;28;20485;-77
2024/01/30 17:09:45;;;;;;;9.38;4.60;;;;;;;9.14;100.00;102062.00;6096058;28;20024;-77
2024/01/30 17:12:40;;;;;;;10.23;4.43;;;;;;;9.21;100.00;102070.41;6099184;28;20062;-78
2024/01/30 17:15:36;;;;;;;10.97;5.30;;;;;;;9.22;100.00;102072.91;6105455;28;20431;-76
2024/01/30 17:18:32;;;;;;;12.40;5.10;;;;;;;9.27;100.00;102089.34;6097819;28;20282;-78
2024/01/30 17:21:28;;;;;;;11.45;5.00;;;;;;;9.25;100.00;102090.38;6094669;28;20033;-77
2024/01/30 17:24:23;;;;;;;15.18;7.18;;;;;;;9.19;100.00;102086.34;6095739;28;20494;-76
2024/01/30 17:27:19;;;;;;;16.30;6.33;;;;;;;8.97;100.00;102080.81;6094715;28;20115;-77
2024/01/30 17:30:23;;;;;;;15.65;7.00;;;;;;;8.98;100.00;102082.50;6094745;28;20643;-77
2024/01/30 17:33:18;;;;;;;13.13;6.82;;;;;;;8.81;100.00;102073.03;6096456;28;20488;-75
2024/01/30 17:36:15;;;;;;;10.20;5.70;;;;;;;8.83;100.00;102086.19;6096001;28;20069;-77
2024/01/30 17:39:11;;;;;;;15.05;6.07;;;;;;;8.92;100.00;102099.63;6095791;28;20064;-77
2024/01/30 17:42:06;;;;;;;12.45;7.20;;;;;;;8.73;100.00;102095.66;6104859;28;20162;-78
2024/01/30 17:45:02;;;;;;;12.53;4.93;;;;;;;8.77;100.00;102107.75;6106353;28;20041;-78
2024/01/30 17:47:58;;;;;;;11.13;5.45;;;;;;;8.75;100.00;102109.66;6075998;28;20290;-77
2024/01/30 17:50:53;;;;;;;13.47;5.40;;;;;;;8.72;100.00;102109.84;6101765;28;20032;-78